Time;durP1;ratioP1;P1;durP2;ratioP2;P2;SDS_P1;SDS_P2;PMS_P1;PMS_P2;Temp;Humidity;BMP_temperature;BMP_pressure;BME280_temperature;BME280_humidity;BME280_pressure;Samples;Min_cycle;Max_cycle;Signal;HPM_P1;HPM_P2
2023/09/21 00:00:14;;;;;;;3.13;1.77;;;19.60;1.00;;;;;;20553456;28;20093;-42
2023/09/21 00:10:15;;;;;;;3.60;1.85;;;19.80;1.00;;;;;;20546524;28;20598;-42
2023/09/21 00:20:23;;;;;;;4.25;1.73;;;19.70;1.00;;;;;;20545707;28;20173;-42
2023/09/21 00:30:24;;;;;;;5.03;2.10;;;19.80;1.00;;;;;;20548323;28;20388;-42
2023/09/21 00:40:25;;;;;;;6.83;1.90;;;19.70;1.00;;;;;;20543491;28;20476;-42
2023/09/21 00:50:25;;;;;;;5.97;2.00;;;19.80;1.00;;;;;;20538725;28;20474;-42
2023/09/21 01:00:28;;;;;;;4.15;1.75;;;19.80;1.00;;;;;;20547613;28;20093;-42
2023/09/21 01:10:29;;;;;;;5.00;1.90;;;19.70;1.00;;;;;;20546964;28;20303;-42
2023/09/21 01:20:32;;;;;;;3.13;1.60;;;19.70;1.00;;;;;;20556428;28;20046;-42
2023/09/21 01:30:32;;;;;;;3.75;1.70;;;19.80;1.00;;;;;;20560340;28;20737;-42
2023/09/21 01:40:34;;;;;;;3.57;1.93;;;19.90;1.00;;;;;;20539415;28;20458;-42
2023/09/21 01:50:44;;;;;;;3.25;1.52;;;20.00;1.00;;;;;;20550642;28;20485;-42
2023/09/21 02:00:46;;;;;;;2.88;1.52;;;20.10;1.00;;;;;;20555178;28;20150;-42
2023/09/21 02:10:50;;;;;;;3.50;1.60;;;20.10;1.00;;;;;;20545513;28;20054;-42
2023/09/21 02:20:50;;;;;;;6.22;1.80;;;20.00;1.00;;;;;;20532353;28;20046;-42
2023/09/21 02:30:51;;;;;;;3.57;1.63;;;20.00;1.00;;;;;;20541986;28;20041;-41
2023/09/21 02:40:52;;;;;;;3.72;1.77;;;20.00;1.00;;;;;;20534743;28;20569;-42
2023/09/21 02:50:53;;;;;;;3.80;1.88;;;19.90;1.00;;;;;;20529411;28;20137;-42
2023/09/21 03:00:54;;;;;;;3.17;1.60;;;19.90;1.00;;;;;;20533146;28;20066;-42
2023/09/21 03:10:54;;;;;;;2.75;1.38;;;19.80;1.00;;;;;;20529318;28;20038;-42
2023/09/21 03:20:55;;;;;;;9.13;1.75;;;19.70;1.00;;;;;;20551847;28;20475;-42
2023/09/21 03:30:56;;;;;;;3.50;1.85;;;19.70;1.00;;;;;;20559557;28;20038;-42
2023/09/21 03:40:58;;;;;;;5.80;1.60;;;19.70;1.00;;;;;;20530294;28;20077;-42
2023/09/21 03:51:01;;;;;;;5.13;1.83;;;19.70;1.00;;;;;;20523269;28;20046;-42
2023/09/21 04:01:04;;;;;;;5.50;1.90;;;19.70;1.00;;;;;;20538241;28;20069;-42
2023/09/21 04:11:04;;;;;;;3.70;1.95;;;19.70;1.00;;;;;;20527447;28;20148;-42
2023/09/21 04:21:08;;;;;;;3.53;1.95;;;19.70;1.00;;;;;;20532531;28;20054;-42
2023/09/21 04:31:10;;;;;;;3.95;1.80;;;19.60;1.00;;;;;;20540857;28;20062;-42
2023/09/21 04:41:15;;;;;;;3.90;2.00;;;19.40;1.00;;;;;;20563794;28;20054;-42
2023/09/21 04:51:16;;;;;;;3.42;1.90;;;19.20;1.00;;;;;;20576570;28;20035;-42
2023/09/21 05:01:18;;;;;;;4.00;2.20;;;19.00;1.00;;;;;;20565732;28;20043;-42
2023/09/21 05:11:19;;;;;;;4.93;2.53;;;18.80;1.00;;;;;;20561113;28;20054;-42
2023/09/21 05:21:19;;;;;;;3.97;2.08;;;18.60;1.00;;;;;;20563621;28;20050;-42
2023/09/21 05:31:20;;;;;;;5.25;2.20;;;18.50;1.00;;;;;;20568340;28;20633;-42
2023/09/21 05:41:20;;;;;;;6.15;2.28;;;18.10;1.00;;;;;;20557049;28;20042;-43
2023/09/21 05:51:21;;;;;;;4.65;2.65;;;17.60;1.00;;;;;;20552244;28;20389;-42
2023/09/21 06:01:22;;;;;;;4.65;2.47;;;17.20;17.90;;;;;;20548704;28;20440;-42
2023/09/21 06:11:25;;;;;;;5.20;2.75;;;17.10;53.90;;;;;;20547990;28;20047;-42
2023/09/21 06:21:26;;;;;;;1.58;0.63;;;16.90;96.40;;;;;;20542925;28;20051;-43
2023/09/21 06:31:28;;;;;;;2.55;0.70;;;16.40;25.60;;;;;;20537033;28;20070;-43
2023/09/21 06:41:30;;;;;;;2.20;0.63;;;15.60;32.10;;;;;;20525921;28;20141;-42
2023/09/21 06:51:30;;;;;;;4.82;1.45;;;15.10;84.90;;;;;;20526484;28;20132;-43
2023/09/21 07:01:32;;;;;;;3.20;0.93;;;14.90;99.90;;;;;;20522369;28;20043;-42
2023/09/21 07:11:33;;;;;;;1.85;0.65;;;14.90;99.90;;;;;;20528362;28;20117;-42
2023/09/21 07:21:34;;;;;;;3.22;1.00;;;14.80;99.90;;;;;;20530492;28;20065;-43
2023/09/21 07:31:35;;;;;;;1.92;1.00;;;14.90;99.90;;;;;;20515545;28;20043;-43
2023/09/21 07:41:36;;;;;;;3.13;1.42;;;15.00;99.90;;;;;;20506885;28;20061;-43
2023/09/21 07:51:37;;;;;;;4.07;1.27;;;15.10;99.90;;;;;;20531664;28;20038;-42
2023/09/21 08:01:38;;;;;;;6.10;1.67;;;15.20;99.90;;;;;;20551214;28;20483;-42
2023/09/21 08:11:39;;;;;;;3.03;1.50;;;15.30;99.90;;;;;;20546107;28;20502;-42
2023/09/21 08:21:40;;;;;;;3.38;1.00;;;15.40;99.90;;;;;;20553555;28;20085;-42
2023/09/21 08:31:41;;;;;;;4.20;1.35;;;15.40;99.90;;;;;;20549232;28;20042;-42
2023/09/21 08:41:48;;;;;;;3.78;1.50;;;15.50;99.90;;;;;;20557641;28;20481;-42
2023/09/21 08:51:52;;;;;;;5.63;1.70;;;15.60;99.90;;;;;;20552076;28;20042;-42
2023/09/21 09:01:54;;;;;;;4.20;1.33;;;15.60;99.90;;;;;;20556605;28;20050;-43
2023/09/21 09:11:56;;;;;;;5.25;1.60;;;15.70;99.90;;;;;;20552534;28;20418;-43
2023/09/21 09:21:56;;;;;;;4.10;1.75;;;15.80;99.90;;;;;;20520348;28;20137;-43
2023/09/21 09:31:59;;;;;;;4.90;1.80;;;15.70;99.90;;;;;;20546814;28;20081;-44
2023/09/21 09:42:03;;;;;;;6.20;1.60;;;15.70;99.90;;;;;;20528637;28;20052;-44
2023/09/21 09:52:06;;;;;;;3.85;1.90;;;15.60;99.90;;;;;;20520234;28;20050;-45
2023/09/21 10:02:11;;;;;;;2.63;1.45;;;15.50;99.90;;;;;;20560813;28;20043;-45
2023/09/21 10:12:13;;;;;;;3.65;1.10;;;15.50;99.90;;;;;;20572540;28;20525;-43
2023/09/21 10:22:26;;;;;;;3.03;1.30;;;15.50;99.90;;;;;;20567938;28;20478;-45
2023/09/21 10:32:43;;;;;;;3.40;1.40;;;15.30;99.90;;;;;;20522768;28;20388;-45
2023/09/21 10:42:44;;;;;;;3.17;1.00;;;15.30;99.90;;;;;;20522745;28;20465;-44
2023/09/21 10:52:55;;;;;;;2.42;0.98;;;15.30;99.90;;;;;;20542815;28;20077;-46
2023/09/21 11:02:56;;;;;;;3.45;1.10;;;15.30;99.90;;;;;;20541927;28;20042;-45
2023/09/21 11:12:56;;;;;;;4.10;1.10;;;15.10;99.90;;;;;;20540795;28;20058;-44
2023/09/21 11:22:57;;;;;;;2.50;1.08;;;15.20;99.90;;;;;;20547849;28;20448;-44
2023/09/21 11:32:57;;;;;;;3.28;1.30;;;15.10;99.90;;;;;;20535384;28;20165;-44
2023/09/21 11:42:59;;;;;;;3.03;1.40;;;15.10;99.90;;;;;;20544496;28;20050;-44
2023/09/21 11:53:06;;;;;;;4.28;1.60;;;15.20;99.90;;;;;;20542573;28;20030;-44
2023/09/21 12:03:07;;;;;;;5.40;1.60;;;15.30;99.90;;;;;;20545162;28;20042;-44
2023/09/21 12:13:11;;;;;;;2.83;1.25;;;15.30;99.90;;;;;;20538963;28;20034;-44
2023/09/21 12:23:12;;;;;;;3.35;1.48;;;15.30;99.90;;;;;;20538177;28;20083;-44
2023/09/21 12:33:15;;;;;;;4.97;1.00;;;15.30;99.90;;;;;;20552022;28;20046;-43
2023/09/21 12:43:16;;;;;;;2.60;1.30;;;15.20;99.90;;;;;;20544610;28;20042;-43
2023/09/21 12:53:16;;;;;;;3.60;1.50;;;15.20;99.90;;;;;;20546936;28;20039;-43
2023/09/21 13:03:17;;;;;;;3.80;1.50;;;15.40;99.90;;;;;;20543409;28;20589;-43
2023/09/21 13:13:19;;;;;;;3.10;1.20;;;15.60;99.90;;;;;;20550444;28;20089;-43
2023/09/21 13:23:19;;;;;;;2.17;0.98;;;15.60;99.90;;;;;;20545178;28;20035;-43
2023/09/21 13:33:20;;;;;;;2.65;1.00;;;15.50;99.90;;;;;;20547517;28;20125;-43
2023/09/21 13:43:23;;;;;;;2.13;1.10;;;15.50;99.90;;;;;;20536600;28;20050;-43
2023/09/21 13:53:24;;;;;;;2.78;1.00;;;15.60;99.90;;;;;;20537902;28;20502;-43
2023/09/21 14:03:25;;;;;;;2.97;1.00;;;15.60;99.90;;;;;;20544406;28;20430;-43
2023/09/21 14:13:25;;;;;;;3.17;1.23;;;15.60;99.90;;;;;;20543450;28;20042;-43
2023/09/21 14:23:26;;;;;;;2.53;1.17;;;15.60;99.90;;;;;;20552386;28;20065;-44
2023/09/21 14:33:27;;;;;;;1.83;1.05;;;15.50;99.90;;;;;;20550191;28;20423;-44
2023/09/21 14:43:27;;;;;;;5.25;1.45;;;15.50;99.90;;;;;;20549361;28;20129;-44
2023/09/21 14:53:28;;;;;;;2.85;1.40;;;15.50;99.90;;;;;;20548983;28;20422;-44
2023/09/21 15:03:29;;;;;;;4.75;1.70;;;15.50;99.90;;;;;;20549372;28;20046;-43
2023/09/21 15:13:31;;;;;;;3.95;1.80;;;15.50;99.90;;;;;;20505173;28;20035;-43
2023/09/21 15:23:31;;;;;;;4.15;2.25;;;15.50;99.90;;;;;;20528241;28;20049;-43
2023/09/21 15:33:32;;;;;;;3.97;2.03;;;15.60;99.90;;;;;;20527380;28;20177;-43
2023/09/21 15:43:33;;;;;;;4.88;2.60;;;15.50;99.90;;;;;;20534865;28;20439;-43
2023/09/21 15:53:34;;;;;;;6.90;3.13;;;15.50;99.90;;;;;;20539995;28;20046;-43
2023/09/21 16:03:35;;;;;;;4.70;3.40;;;15.60;99.90;;;;;;20561256;28;20070;-43
2023/09/21 16:13:35;;;;;;;4.97;3.42;;;15.60;99.90;;;;;;20563747;28;20046;-43
2023/09/21 16:23:36;;;;;;;6.25;3.85;;;15.60;99.90;;;;;;20531491;28;20038;-43
2023/09/21 16:33:37;;;;;;;6.67;3.90;;;15.50;99.90;;;;;;20531907;28;20069;-43
2023/09/21 16:43:37;;;;;;;6.95;3.72;;;15.50;99.90;;;;;;20545090;28;20039;-43
2023/09/21 16:53:41;;;;;;;7.72;5.10;;;15.50;99.90;;;;;;20543895;28;20516;-44
2023/09/21 17:03:42;;;;;;;8.68;6.15;;;15.50;99.90;;;;;;20550291;28;20066;-43
2023/09/21 17:13:42;;;;;;;6.28;4.75;;;15.50;99.90;;;;;;20558090;28;20034;-44
2023/09/21 17:23:44;;;;;;;7.25;4.70;;;15.40;99.90;;;;;;20559406;28;20053;-43
2023/09/21 17:33:45;;;;;;;7.22;4.45;;;15.40;99.90;;;;;;20567682;28;20153;-43
2023/09/21 17:43:46;;;;;;;7.30;4.20;;;15.40;99.90;;;;;;20560658;28;20038;-43
2023/09/21 17:53:46;;;;;;;9.43;5.68;;;15.30;99.90;;;;;;20565363;28;20490;-44
2023/09/21 18:03:47;;;;;;;9.27;7.32;;;15.40;99.90;;;;;;20566198;28;20042;-43
2023/09/21 18:13:48;;;;;;;11.38;8.60;;;15.30;99.90;;;;;;20545045;28;20108;-43
2023/09/21 18:23:49;;;;;;;14.80;9.55;;;15.30;99.90;;;;;;20553240;28;20541;-43
2023/09/21 18:33:50;;;;;;;17.50;11.23;;;15.30;99.90;;;;;;20518359;28;1086568;-43
2023/09/21 18:43:51;;;;;;;17.30;10.20;;;15.30;99.90;;;;;;20552244;28;20043;-43
2023/09/21 18:53:53;;;;;;;15.73;10.13;;;15.30;99.90;;;;;;20529726;28;20442;-43
2023/09/21 19:03:53;;;;;;;18.40;12.48;;;15.30;99.90;;;;;;20542338;28;20402;-42
2023/09/21 19:13:56;;;;;;;20.88;14.20;;;15.30;99.90;;;;;;20555166;28;20077;-44
2023/09/21 19:23:56;;;;;;;19.98;12.70;;;15.30;99.90;;;;;;20569970;28;20121;-43
2023/09/21 19:33:57;;;;;;;17.52;10.93;;;15.40;99.90;;;;;;20559869;28;20042;-43
2023/09/21 19:43:58;;;;;;;22.20;14.85;;;15.30;99.90;;;;;;20529305;28;20129;-43
2023/09/21 19:53:59;;;;;;;25.07;15.20;;;15.30;99.90;;;;;;20534080;28;20117;-44
2023/09/21 20:04:00;;;;;;;25.48;15.35;;;15.40;99.90;;;;;;20554379;28;20100;-43
2023/09/21 20:14:01;;;;;;;24.65;15.90;;;15.50;99.90;;;;;;20539789;28;20038;-43
2023/09/21 20:24:02;;;;;;;24.85;16.92;;;15.50;99.90;;;;;;20544671;28;20077;-43
2023/09/21 20:34:03;;;;;;;24.60;17.92;;;15.40;99.90;;;;;;20519191;28;20537;-43
2023/09/21 20:44:03;;;;;;;24.27;16.23;;;15.50;99.90;;;;;;20504084;28;20098;-43
2023/09/21 20:54:04;;;;;;;23.83;16.65;;;15.50;99.90;;;;;;20530816;28;20465;-43
2023/09/21 21:04:05;;;;;;;24.50;17.55;;;15.60;99.90;;;;;;20556285;28;20046;-43
2023/09/21 21:14:06;;;;;;;19.50;14.73;;;15.60;99.90;;;;;;20544377;28;20034;-43
2023/09/21 21:24:07;;;;;;;21.08;15.30;;;15.50;99.90;;;;;;20574766;28;20038;-43
2023/09/21 21:34:08;;;;;;;18.63;14.95;;;15.50;99.90;;;;;;20583331;28;20042;-43
2023/09/21 21:44:08;;;;;;;19.58;14.85;;;15.50;99.90;;;;;;20564356;28;20034;-44
2023/09/21 21:54:09;;;;;;;19.75;15.25;;;15.40;99.90;;;;;;20553648;28;20828;-43
2023/09/21 22:04:09;;;;;;;18.13;14.27;;;15.40;99.90;;;;;;20551164;28;20141;-44
2023/09/21 22:14:10;;;;;;;25.57;15.70;;;15.30;99.90;;;;;;20540608;28;20866;-43
2023/09/21 22:24:11;;;;;;;16.42;11.07;;;15.40;99.90;;;;;;20552863;28;20149;-44
2023/09/21 22:34:12;;;;;;;11.00;5.88;;;15.30;99.90;;;;;;20551615;28;20125;-44
2023/09/21 22:44:13;;;;;;;11.98;3.25;;;14.90;99.90;;;;;;20550131;28;20074;-43
2023/09/21 22:54:14;;;;;;;8.48;1.88;;;14.70;99.90;;;;;;20553553;28;20054;-43
2023/09/21 23:04:14;;;;;;;8.80;2.00;;;14.50;99.90;;;;;;20545664;28;20042;-43
2023/09/21 23:14:16;;;;;;;5.87;1.77;;;14.40;99.90;;;;;;20548635;28;20055;-43
2023/09/21 23:24:17;;;;;;;11.15;3.90;;;14.10;99.90;;;;;;20544295;28;20046;-43
2023/09/21 23:34:19;;;;;;;12.98;4.95;;;14.20;99.90;;;;;;20532775;28;20081;-43
2023/09/21 23:44:20;;;;;;;12.07;5.45;;;14.20;99.90;;;;;;20542734;28;20113;-43
2023/09/21 23:54:21;;;;;;;14.98;9.82;;;14.10;99.90;;;;;;20536725;28;20395;-44
